createdAt,value
2019-04-16T00:07:23.647Z,9.34
2019-04-16T00:12:22.264Z,9.57
2019-04-16T00:17:38.161Z,9.87
2019-04-16T00:22:49.566Z,9.83
2019-04-16T00:27:38.418Z,9.91
2019-04-16T00:33:00.629Z,9.51
2019-04-16T00:37:51.586Z,9.79
2019-04-16T00:43:03.814Z,9.48
2019-04-16T00:48:03.999Z,9.17
2019-04-16T00:53:15.794Z,9.68
2019-04-16T00:58:04.236Z,9.72
2019-04-16T01:03:19.335Z,10.13
2019-04-16T01:08:21.207Z,10.42
2019-04-16T01:13:33.070Z,9.97
2019-04-16T01:18:21.389Z,10.40
2019-04-16T01:23:36.550Z,10.24
2019-04-16T01:28:35.315Z,10.81
2019-04-16T01:33:57.820Z,10.75
2019-04-16T01:38:46.158Z,10.00
2019-04-16T01:44:01.559Z,10.48
2019-04-16T01:49:00.246Z,10.33
2019-04-16T01:54:22.546Z,10.09
2019-04-16T01:59:18.486Z,10.35
2019-04-16T02:04:37.571Z,10.42
2019-04-16T02:09:37.830Z,10.56
2019-04-16T02:14:47.346Z,10.95
2019-04-16T02:19:44.703Z,10.53
2019-04-16T02:24:59.584Z,10.65
2019-04-16T02:30:02.658Z,10.65
2019-04-16T02:35:16.916Z,10.71
2019-04-16T02:40:18.344Z,10.53
2019-04-16T02:45:36.617Z,10.91
2019-04-16T02:50:30.218Z,10.69
2019-04-16T02:55:43.854Z,10.87
2019-04-16T03:00:36.010Z,11.15
2019-04-16T03:05:50.501Z,10.80
2019-04-16T03:11:45.557Z,11.55
2019-04-16T03:16:44.389Z,11.08
2019-04-16T03:21:43.037Z,11.07
2019-04-16T03:26:58.040Z,10.72
2019-04-16T03:32:02.557Z,10.57
2019-04-16T03:37:07.945Z,10.89
2019-04-16T03:42:06.901Z,10.90
2019-04-16T03:47:24.777Z,10.92
2019-04-16T03:52:23.202Z,11.28
2019-04-16T04:02:41.911Z,10.31
2019-04-16T04:07:55.475Z,11.01
2019-04-16T04:12:45.576Z,10.97
2019-04-16T04:17:57.283Z,10.95
2019-04-16T04:22:56.763Z,10.64
2019-04-16T04:28:12.035Z,10.93
2019-04-16T04:33:10.503Z,11.12
2019-04-16T04:38:33.572Z,10.32
2019-04-16T04:43:19.693Z,10.51
2019-04-16T04:48:40.732Z,11.31
2019-04-16T04:53:29.149Z,11.02
2019-04-16T04:58:44.532Z,11.22
2019-04-16T05:03:49.620Z,10.47
2019-04-16T05:08:57.564Z,11.09
2019-04-16T05:13:56.087Z,11.03
2019-04-16T05:19:06.305Z,10.65
2019-04-16T05:24:05.270Z,10.54
2019-04-16T05:29:17.506Z,10.94
2019-04-16T05:34:27.751Z,10.42
2019-04-16T05:39:39.095Z,11.06
2019-04-16T05:44:27.540Z,10.52
2019-04-16T05:49:39.419Z,10.18
2019-04-16T05:54:37.741Z,10.84
2019-04-16T05:59:53.060Z,10.89
2019-04-16T06:04:55.627Z,11.08
2019-04-16T06:10:17.042Z,10.87
2019-04-16T06:15:00.309Z,11.16
2019-04-16T06:20:11.759Z,10.63
2019-04-16T06:25:11.118Z,10.54
2019-04-16T06:30:18.209Z,10.27
2019-04-16T06:35:26.597Z,10.07
2019-04-16T06:40:36.843Z,10.36
2019-04-16T06:45:37.053Z,9.84
2019-04-16T06:50:49.533Z,9.51
2019-04-16T06:55:52.138Z,10.18
2019-04-16T07:01:00.174Z,9.75
2019-04-16T07:06:03.694Z,9.39
2019-04-16T07:11:20.630Z,9.85
2019-04-16T07:16:09.419Z,9.05
2019-04-16T07:21:31.421Z,9.37
2019-04-16T07:26:20.351Z,9.70
2019-04-16T07:31:42.285Z,9.64
2019-04-16T07:36:31.081Z,9.28
2019-04-16T07:41:46.991Z,10.03
2019-04-16T07:46:47.097Z,10.20
2019-04-16T07:52:07.809Z,10.49
2019-04-16T07:56:56.420Z,10.04
2019-04-16T08:02:02.485Z,10.11
2019-04-16T08:07:01.314Z,9.88
2019-04-16T08:12:30.128Z,10.12
2019-04-16T08:17:24.826Z,9.96
2019-04-16T08:22:39.770Z,9.67
2019-04-16T08:27:25.302Z,10.60
2019-04-16T08:32:38.113Z,10.38
2019-04-16T08:37:48.337Z,10.92
2019-04-16T08:42:56.997Z,11.74
2019-04-16T08:47:54.134Z,11.69
2019-04-16T08:53:00.922Z,11.84
2019-04-16T08:58:07.137Z,11.64
2019-04-16T09:03:11.050Z,11.79
2019-04-16T09:08:13.036Z,11.70
2019-04-16T09:13:27.902Z,11.62
2019-04-16T09:18:26.857Z,11.39
2019-04-16T09:23:38.866Z,11.67
2019-04-16T09:28:37.881Z,12.27
2019-04-16T09:33:46.866Z,11.53
2019-04-16T09:39:01.938Z,11.22
2019-04-16T09:44:01.927Z,11.39
2019-04-16T09:49:14.192Z,11.70
2019-04-16T09:59:26.856Z,11.97
2019-04-16T10:04:39.481Z,11.42
2019-04-16T10:09:28.388Z,11.53
2019-04-16T10:14:44.445Z,11.80
2019-04-16T10:19:43.257Z,13.64
2019-04-16T10:25:17.441Z,11.74
2019-04-16T10:30:12.732Z,14.33
2019-04-16T10:35:24.190Z,10.98
2019-04-16T10:40:13.106Z,11.25
2019-04-16T10:45:31.519Z,11.47
2019-04-16T10:50:30.511Z,10.15
2019-04-16T10:55:46.710Z,10.08
2019-04-16T11:00:45.618Z,9.62
2019-04-16T11:05:57.026Z,11.60
2019-04-16T11:11:11.222Z,8.60
2019-04-16T11:16:22.881Z,9.82
2019-04-16T11:21:11.763Z,8.45
2019-04-16T11:26:24.386Z,9.11
2019-04-16T11:31:24.055Z,8.30
2019-04-16T11:36:37.833Z,8.39
2019-04-16T11:41:43.941Z,8.20
2019-04-16T11:46:55.658Z,7.64
2019-04-16T11:51:44.667Z,8.10
2019-04-16T11:57:00.168Z,8.10
2019-04-16T12:01:58.314Z,9.29
2019-04-16T12:12:21.145Z,9.36
2019-04-16T12:17:23.432Z,9.88
2019-04-16T12:22:31.796Z,9.47
2019-04-16T12:27:37.079Z,9.94
2019-04-16T12:32:36.231Z,9.62
2019-04-16T12:37:51.739Z,10.75
2019-04-16T12:42:57.559Z,9.47
2019-04-16T12:48:06.512Z,8.83
2019-04-16T12:53:14.259Z,9.34
2019-04-16T12:58:25.978Z,10.14
2019-04-16T13:03:17.525Z,11.65
2019-04-16T13:08:30.485Z,11.27
2019-04-16T13:13:29.471Z,13.07
2019-04-16T13:18:37.975Z,10.62
2019-04-16T13:23:47.637Z,11.27
2019-04-16T13:29:09.253Z,10.78
2019-04-16T13:33:57.101Z,14.61
2019-04-16T13:39:14.807Z,14.27
2019-04-16T13:44:16.939Z,10.77
2019-04-16T13:49:31.676Z,9.78
2019-04-16T13:59:47.524Z,10.17
2019-04-16T14:04:46.382Z,12.03
2019-04-16T14:10:02.294Z,11.20
2019-04-16T14:15:07.956Z,11.27
2019-04-16T14:20:14.304Z,9.76
2019-04-16T14:25:12.648Z,10.54
2019-04-16T14:30:31.603Z,9.42
2019-04-16T14:35:40.069Z,8.71
2019-04-16T14:40:44.363Z,9.41
2019-04-16T14:45:53.548Z,9.98
2019-04-16T14:51:05.629Z,9.59
2019-04-16T14:56:00.699Z,8.65
2019-04-16T15:01:10.119Z,9.25
2019-04-16T15:06:09.121Z,9.64
2019-04-16T15:11:25.171Z,10.55
2019-04-16T15:16:27.525Z,9.26
2019-04-16T15:21:26.433Z,8.02
2019-04-16T15:26:36.463Z,8.60
2019-04-16T15:31:43.325Z,8.91
2019-04-16T15:36:42.293Z,9.65
2019-04-16T15:41:56.547Z,10.74
2019-04-16T15:46:55.929Z,10.15
2019-04-16T15:52:11.479Z,10.07
2019-04-16T15:57:20.998Z,9.65
2019-04-16T16:02:28.249Z,8.78
2019-04-16T16:07:34.121Z,9.10
2019-04-16T16:12:42.537Z,10.60
2019-04-16T16:17:48.205Z,10.61
2019-04-16T16:23:00.905Z,11.12
2019-04-16T16:27:50.037Z,12.10
2019-04-16T16:33:13.100Z,11.61
2019-04-16T16:38:01.970Z,12.21
2019-04-16T16:43:20.768Z,11.26
2019-04-16T16:48:21.844Z,11.50
2019-04-16T16:53:31.864Z,12.14
2019-04-16T16:58:38.448Z,11.79
2019-04-16T17:03:43.011Z,11.27
2019-04-16T17:08:43.126Z,12.08
2019-04-16T17:13:43.407Z,11.73
2019-04-16T17:18:49.862Z,11.59
2019-04-16T17:24:02.879Z,11.26
2019-04-16T17:28:51.786Z,11.90
2019-04-16T17:34:13.729Z,12.49
2019-04-16T17:39:02.879Z,11.93
2019-04-16T17:44:27.287Z,11.26
2019-04-16T17:49:12.386Z,11.33
2019-04-16T17:54:20.923Z,11.59
2019-04-16T18:04:50.586Z,11.38
2019-04-16T18:09:43.043Z,11.80
2019-04-16T18:14:54.469Z,10.95
2019-04-16T18:19:43.324Z,11.74
2019-04-16T18:24:58.655Z,11.51
2019-04-16T18:29:57.906Z,9.35
2019-04-16T18:35:16.385Z,6.94
2019-04-16T18:40:16.013Z,6.01
2019-04-16T18:45:25.203Z,4.84
2019-04-16T18:50:27.749Z,4.17
2019-04-16T18:55:42.942Z,4.36
2019-04-16T19:00:41.787Z,4.09
2019-04-16T19:11:07.063Z,3.80
2019-04-16T19:16:15.586Z,3.64
2019-04-16T19:21:13.513Z,3.47
2019-04-16T19:26:36.708Z,3.21
2019-04-16T19:31:26.586Z,3.13
2019-04-16T19:36:36.189Z,3.02
2019-04-16T19:41:45.792Z,2.68
2019-04-16T19:47:02.673Z,2.90
2019-04-16T19:52:01.778Z,2.92
2019-04-16T19:57:24.263Z,2.88
2019-04-16T20:02:11.771Z,2.66
2019-04-16T20:07:34.372Z,2.74
2019-04-16T20:12:25.152Z,2.81
2019-04-16T20:17:46.857Z,3.00
2019-04-16T20:22:35.880Z,2.51
2019-04-16T20:27:51.847Z,2.67
2019-04-16T20:32:50.706Z,3.04
2019-04-16T20:38:06.900Z,2.61
2019-04-16T20:43:06.014Z,2.22
2019-04-16T20:48:21.544Z,2.17
2019-04-16T20:53:20.438Z,2.30
2019-04-16T20:58:39.194Z,2.23
2019-04-16T21:03:38.159Z,2.30
2019-04-16T21:13:50.800Z,2.58
2019-04-16T21:19:21.633Z,2.41
2019-04-16T21:24:07.810Z,2.55
2019-04-16T21:29:23.353Z,2.47
2019-04-16T21:34:26.334Z,2.48
2019-04-16T21:39:24.165Z,2.51
2019-04-16T21:44:23.505Z,2.63
2019-04-16T21:49:45.952Z,2.59
2019-04-16T21:54:34.812Z,2.44
2019-04-16T21:59:59.015Z,2.48
2019-04-16T22:04:46.902Z,2.33
2019-04-16T22:10:05.575Z,2.70
2019-04-16T22:15:04.433Z,2.70
2019-04-16T22:20:28.302Z,2.78
2019-04-16T22:25:16.328Z,2.32
2019-04-16T22:35:31.973Z,2.24
2019-04-16T22:40:40.621Z,2.19
2019-04-16T22:45:40.926Z,2.34
2019-04-16T22:50:46.665Z,2.32
2019-04-16T22:55:44.079Z,2.16
2019-04-16T23:01:09.811Z,2.53
2019-04-16T23:05:57.243Z,2.73
2019-04-16T23:11:17.016Z,2.75
2019-04-16T23:16:16.702Z,2.75
2019-04-16T23:21:32.791Z,2.38
2019-04-16T23:26:33.046Z,2.50
2019-04-16T23:31:43.689Z,2.38
2019-04-16T23:36:44.612Z,2.28
2019-04-16T23:42:00.800Z,2.24
2019-04-16T23:47:00.063Z,2.47
2019-04-16T23:52:16.618Z,2.21
2019-04-16T23:57:15.449Z,2.31
